Weather History for Taylorville, IL

Change the Weather History Date:

Wednesday, March 6, 2013

  Actual Average (KSPI) Record (KSPI)
Temperature  
Mean Temperature 28 °F 38 °F  
Max Temperature 30 °F 48 °F 83 °F (1956)
Min Temperature 26 °F 29 °F -9 °F (1960)
Degree Days  
Heating Degree Days 37 27  
Month to date heating degree days 167  
Since 1 July heating degree days 4438  
Cooling Degree Days 0 0  
Month to date cooling degree days 0  
Year to date cooling degree days 0  
Moisture  
Dew Point 23 °F    
Average Humidity 79    
Maximum Humidity 86    
Minimum Humidity 74    
Precipitation  
Precipitation 0.00 in 0.08 in 1.77 in (1973)
Month to date precipitation 0.48  
Year to date precipitation 4.11  
Snow  
Snow 0.00 in 0.10 in 6.00 in (1931)
Month to date snowfall 0.7  
Since 1 July snowfall 18.8  
Snow Depth -    
Sea Level Pressure  
Sea Level Pressure 30.26 in    
Wind  
Wind Speed 16 mph (NW)    
Max Wind Speed 24 mph    
Max Gust Speed 31 mph    
Visibility 10 miles    
Events      
T = Trace of Precipitation, MM = Missing Value Source: NWS Daily Summary

Daily Weather History Graph

Daily Weather History Graph

Search for Another Location

Airport:

Trip Planner

Search our weather history database for the weather conditions in past years. The results will help you decide how hot, cold, wet, or windy it might be!

Date:

Astronomy

Mar. 06, 2013 Rise Set
Actual Time 6:22 AM CST 5:55 PM CST
Civil Twilight 5:55 AM CST 6:22 PM CST
Nautical Twilight 5:24 AM CST 6:53 PM CST
Astronomical Twilight 4:53 AM CST 7:24 PM CST
Moon 2:30 AM CST (3/6) 12:38 PM CST (3/6)
Length of Visible Light 12h 26m
Length of Day
11h 32m
Waning Crescent, 29% of the Moon is Illuminated
Mar 6
Waning Crescent
Mar 11
New
Mar 19
First Quarter
Mar 27
Full
Apr 2
Last Quarter

Hourly Weather History & Observations

Time (CST) Temp. Windchill Dew Point Humidity Pressure Visibility Wind Dir Wind Speed Gust Speed Precip Events Conditions
12:15 AM 28.4 °F 15.1 °F 24.8 °F 86% 30.03 in 10.0 mi NW 20.7 mph 27.6 mph N/A   Overcast
12:35 AM 28.4 °F 15.1 °F 24.8 °F 86% 30.05 in 10.0 mi NNW 20.7 mph 29.9 mph N/A   Overcast
12:55 AM 28.4 °F 15.1 °F 24.8 °F 86% 30.06 in 10.0 mi NW 20.7 mph 26.5 mph N/A   Overcast
1:15 AM 28.4 °F 15.4 °F 24.8 °F 86% 30.07 in 10.0 mi NW 19.6 mph 26.5 mph N/A   Overcast
1:35 AM 28.4 °F 15.4 °F 23.0 °F 80% 30.07 in 10.0 mi NW 19.6 mph 24.2 mph N/A   Overcast
1:55 AM 28.4 °F 14.7 °F 23.0 °F 80% 30.08 in 10.0 mi NW 21.9 mph 28.8 mph N/A   Overcast
2:15 AM 28.4 °F 14.4 °F 23.0 °F 80% 30.08 in 10.0 mi NW 23.0 mph 29.9 mph N/A   Overcast
2:35 AM 28.4 °F 14.1 °F 23.0 °F 80% 30.09 in 10.0 mi NW 24.2 mph 31.1 mph N/A   Overcast
2:55 AM 28.4 °F 15.4 °F 23.0 °F 80% 30.09 in 10.0 mi NW 19.6 mph 29.9 mph N/A   Mostly Cloudy
3:15 AM 28.4 °F 15.8 °F 23.0 °F 80% 30.10 in 10.0 mi NW 18.4 mph 29.9 mph N/A   Overcast
3:35 AM 28.4 °F 15.1 °F 23.0 °F 80% 30.11 in 10.0 mi NW 20.7 mph 28.8 mph N/A   Overcast
3:55 AM 28.4 °F 16.2 °F 23.0 °F 80% 30.12 in 10.0 mi NW 17.3 mph 27.6 mph N/A   Overcast
4:15 AM 28.4 °F 15.4 °F 23.0 °F 80% 30.14 in 10.0 mi NW 19.6 mph 26.5 mph N/A   Mostly Cloudy
4:35 AM 28.4 °F 16.2 °F 23.0 °F 80% 30.15 in 10.0 mi NW 17.3 mph 24.2 mph N/A   Overcast
4:55 AM 28.4 °F 16.2 °F 23.0 °F 80% 30.16 in 10.0 mi NW 17.3 mph 28.8 mph N/A   Overcast
5:15 AM 28.4 °F 15.1 °F 23.0 °F 80% 30.18 in 10.0 mi NW 20.7 mph 25.3 mph N/A   Overcast
5:35 AM 28.4 °F 16.2 °F 23.0 °F 80% 30.19 in 10.0 mi NW 17.3 mph 24.2 mph N/A   Overcast
5:55 AM 28.4 °F 16.2 °F 23.0 °F 80% 30.20 in 10.0 mi NW 17.3 mph 26.5 mph N/A   Overcast
6:15 AM 28.4 °F 15.1 °F 23.0 °F 80% 30.20 in 10.0 mi NNW 20.7 mph 25.3 mph N/A   Overcast
6:35 AM 26.6 °F 13.4 °F 21.2 °F 80% 30.21 in 10.0 mi NNW 18.4 mph 23.0 mph N/A   Overcast
6:55 AM 26.6 °F 13.8 °F 21.2 °F 80% 30.22 in 10.0 mi NW 17.3 mph 21.9 mph N/A   Overcast
7:15 AM 26.6 °F 13.8 °F 21.2 °F 80% 30.24 in 10.0 mi NW 17.3 mph 23.0 mph N/A   Overcast
7:35 AM 26.6 °F 14.3 °F 21.2 °F 80% 30.26 in 10.0 mi NW 16.1 mph 23.0 mph N/A   Overcast
7:55 AM 26.6 °F 14.3 °F 21.2 °F 80% 30.26 in 10.0 mi NW 16.1 mph - N/A   Overcast
8:15 AM 26.6 °F 13.4 °F 21.2 °F 80% 30.27 in 10.0 mi NNW 18.4 mph 26.5 mph N/A   Overcast
8:35 AM 26.6 °F 12.7 °F 21.2 °F 80% 30.27 in 10.0 mi NNW 20.7 mph 28.8 mph N/A   Overcast
8:55 AM 26.6 °F 13.1 °F 21.2 °F 80% 30.28 in 10.0 mi NNW 19.6 mph - N/A   Overcast
9:15 AM 26.6 °F 13.4 °F 21.2 °F 80% 30.29 in 10.0 mi NNW 18.4 mph 25.3 mph N/A   Overcast
9:35 AM 28.4 °F 15.4 °F 23.0 °F 80% 30.29 in 10.0 mi NNW 19.6 mph - N/A   Overcast
9:55 AM 28.4 °F 17.5 °F 23.0 °F 80% 30.30 in 10.0 mi NNW 13.8 mph - N/A   Overcast
10:15 AM 28.4 °F 17.5 °F 23.0 °F 80% 30.31 in 10.0 mi NNW 13.8 mph 21.9 mph N/A   Mostly Cloudy
10:35 AM 30.2 °F 19.3 °F 24.8 °F 80% 30.31 in 10.0 mi NNW 15.0 mph - N/A   Mostly Cloudy
10:55 AM 30.2 °F 19.3 °F 23.0 °F 75% 30.32 in 10.0 mi NW 15.0 mph - N/A   Mostly Cloudy
11:15 AM 30.2 °F 20.2 °F 24.8 °F 80% 30.32 in 10.0 mi NW 12.7 mph - N/A   Overcast
11:35 AM 30.2 °F 19.3 °F 24.8 °F 80% 30.31 in 10.0 mi NW 15.0 mph - N/A   Overcast
11:55 AM 30.2 °F 19.3 °F 23.0 °F 75% 30.31 in 10.0 mi NNW 15.0 mph 18.4 mph N/A   Overcast
12:15 PM 30.2 °F 19.8 °F 24.8 °F 80% 30.31 in 10.0 mi NNW 13.8 mph - N/A   Overcast
12:35 PM 30.2 °F 19.3 °F 24.8 °F 80% 30.30 in 10.0 mi NNW 15.0 mph - N/A   Overcast
12:55 PM 30.2 °F 20.2 °F 24.8 °F 80% 30.30 in 10.0 mi NW 12.7 mph 18.4 mph N/A   Overcast
1:15 PM 30.2 °F 19.8 °F 24.8 °F 80% 30.30 in 10.0 mi NNW 13.8 mph - N/A   Overcast
1:35 PM 30.2 °F 20.2 °F 24.8 °F 80% 30.30 in 10.0 mi NNW 12.7 mph - N/A   Overcast
1:55 PM 30.2 °F 19.8 °F 24.8 °F 80% 30.30 in 10.0 mi NNW 13.8 mph - N/A   Overcast
2:15 PM 30.2 °F 19.3 °F 24.8 °F 80% 30.30 in 10.0 mi NNW 15.0 mph - N/A   Overcast
2:35 PM 30.2 °F 20.8 °F 24.8 °F 80% 30.31 in 10.0 mi NNW 11.5 mph - N/A   Overcast
2:55 PM 30.2 °F 21.3 °F 24.8 °F 80% 30.31 in 10.0 mi NNW 10.4 mph - N/A   Overcast
3:15 PM 30.2 °F 21.3 °F 24.8 °F 80% 30.31 in 10.0 mi NNW 10.4 mph - N/A   Overcast
3:35 PM 30.2 °F 21.9 °F 24.8 °F 80% 30.32 in 10.0 mi WNW 9.2 mph - N/A   Overcast
3:55 PM 30.2 °F 21.3 °F 23.0 °F 75% 30.32 in 10.0 mi WNW 10.4 mph - N/A   Overcast
4:15 PM 28.4 °F 18.0 °F 23.0 °F 80% 30.32 in 10.0 mi WNW 12.7 mph - N/A   Overcast
4:35 PM 28.4 °F 18.5 °F 21.2 °F 74% 30.32 in 10.0 mi WNW 11.5 mph - N/A   Overcast
4:55 PM 28.4 °F 19.7 °F 21.2 °F 74% 30.33 in 10.0 mi WNW 9.2 mph - N/A   Overcast
5:15 PM 28.4 °F 20.4 °F 21.2 °F 74% 30.33 in 10.0 mi WNW 8.1 mph - N/A   Overcast
5:35 PM 28.4 °F 20.4 °F 21.2 °F 74% 30.34 in 10.0 mi NW 8.1 mph - N/A   Overcast
5:55 PM 28.4 °F 19.1 °F 21.2 °F 74% 30.34 in 10.0 mi NW 10.4 mph - N/A   Overcast
6:15 PM 28.4 °F 19.7 °F 21.2 °F 74% 30.33 in 10.0 mi NW 9.2 mph - N/A   Overcast
6:35 PM 28.4 °F 19.1 °F 21.2 °F 74% 30.33 in 10.0 mi NNW 10.4 mph - N/A   Overcast
6:55 PM 28.4 °F 19.1 °F 21.2 °F 74% 30.33 in 10.0 mi NNW 10.4 mph - N/A   Overcast
7:15 PM 28.4 °F 19.7 °F 21.2 °F 74% 30.33 in 10.0 mi North 9.2 mph - N/A   Overcast
7:35 PM 28.4 °F 18.5 °F 21.2 °F 74% 30.33 in 10.0 mi NNW 11.5 mph - N/A   Overcast
7:55 PM 26.6 °F 17.5 °F 21.2 °F 80% 30.33 in 10.0 mi NW 9.2 mph - N/A   Overcast
8:15 PM 26.6 °F 18.2 °F 21.2 °F 80% 30.34 in 10.0 mi NNW 8.1 mph - N/A   Overcast
8:35 PM 26.6 °F 17.5 °F 21.2 °F 80% 30.34 in 10.0 mi North 9.2 mph - N/A   Overcast
8:55 PM 26.6 °F 18.2 °F 21.2 °F 80% 30.34 in 10.0 mi North 8.1 mph - N/A   Overcast
9:15 PM 26.6 °F 17.5 °F 21.2 °F 80% 30.33 in 10.0 mi North 9.2 mph - N/A   Overcast
9:35 PM 26.6 °F - 21.2 °F 80% 30.33 in 10.0 mi Calm Calm - N/A   Overcast
9:55 PM 26.6 °F 20.0 °F 21.2 °F 80% 30.33 in 10.0 mi North 5.8 mph - N/A   Overcast
10:15 PM 26.6 °F 21.2 °F 21.2 °F 80% 30.33 in 10.0 mi NW 4.6 mph - N/A   Overcast
10:35 PM 26.6 °F 22.6 °F 21.2 °F 80% 30.33 in 10.0 mi North 3.5 mph - N/A   Overcast
10:55 PM 26.6 °F 20.0 °F 21.2 °F 80% 30.33 in 10.0 mi NW 5.8 mph - N/A   Overcast
11:15 PM 26.6 °F 21.2 °F 21.2 °F 80% 30.33 in 10.0 mi West 4.6 mph - N/A   Overcast
11:35 PM 26.6 °F - 21.2 °F 80% 30.33 in 10.0 mi Calm Calm - N/A   Overcast
11:55 PM 26.6 °F - 21.2 °F 80% 30.33 in 10.0 mi Calm Calm - N/A   Overcast